Time;durP1;ratioP1;P1;durP2;ratioP2;P2;SDS_P1;SDS_P2;PMS_P1;PMS_P2;Temp;Humidity;BMP_temperature;BMP_pressure;BME280_temperature;BME280_humidity;BME280_pressure;Samples;Min_cycle;Max_cycle;Signal;HPM_P1;HPM_P2
2023/04/06 06:57:32;;;;;;;;;41.25;34.75;;;;;10.57;56.04;101377.72;6210516;22;46501;-70
2023/04/06 06:59:59;;;;;;;;;37.75;30.25;;;;;10.60;55.98;101373.44;6276351;22;45173;-72
2023/04/06 07:02:25;;;;;;;;;33.50;27.25;;;;;10.64;56.86;101378.00;6277107;22;45283;-71
2023/04/06 07:04:50;;;;;;;;;27.00;25.25;;;;;10.41;56.32;101339.31;6249545;22;45796;-72
2023/04/06 07:07:15;;;;;;;;;27.00;25.50;;;;;10.17;56.44;101292.69;6248178;22;47561;-73
2023/04/06 07:09:41;;;;;;;;;30.00;26.25;;;;;10.67;56.47;101374.53;6276825;22;45242;-73
2023/04/06 07:12:06;;;;;;;;;25.25;23.25;;;;;10.75;57.07;101379.25;6276868;22;45213;-72
2023/04/06 07:14:32;;;;;;;;;27.50;25.25;;;;;10.71;56.71;101373.81;6249309;22;45862;-72
2023/04/06 07:16:57;;;;;;;;;31.75;26.75;;;;;10.74;55.92;101393.28;6277332;22;45893;-72
2023/04/06 07:19:22;;;;;;;;;32.75;27.50;;;;;10.70;56.58;101393.16;6277286;22;45264;-72
2023/04/06 07:21:49;;;;;;;;;32.00;31.25;;;;;10.64;53.99;101385.94;6277174;22;44731;-73
2023/04/06 07:24:15;;;;;;;;;30.00;28.00;;;;;10.48;58.62;101381.84;6249239;22;45467;-72
2023/04/06 07:26:40;;;;;;;;;34.50;31.25;;;;;10.40;56.65;101358.66;6277074;22;45278;-73
2023/04/06 07:29:06;;;;;;;;;36.50;34.00;;;;;10.39;58.70;101363.06;6276485;22;45200;-73
2023/04/06 07:31:31;;;;;;;;;31.75;31.00;;;;;10.51;58.90;101379.31;6276531;22;45165;-73
2023/04/06 07:33:57;;;;;;;;;24.50;21.00;;;;;10.39;55.25;101354.19;6248628;22;45762;-73
2023/04/06 07:36:22;;;;;;;;;32.25;31.25;;;;;10.56;60.22;101390.06;6277130;22;45153;-72
2023/04/06 07:38:48;;;;;;;;;42.00;35.00;;;;;10.49;60.29;101359.84;6276903;22;45082;-73
2023/04/06 07:41:14;;;;;;;;;28.25;24.00;;;;;10.67;58.75;101377.16;6277098;22;45118;-72
2023/04/06 07:43:40;;;;;;;;;29.25;24.25;;;;;10.63;55.93;101352.38;6276143;22;44968;-72
2023/04/06 07:46:05;;;;;;;;;39.00;33.50;;;;;10.78;58.71;101354.63;6276606;22;46063;-71
2023/04/06 07:48:31;;;;;;;;;34.75;29.50;;;;;10.71;56.75;101323.56;6248832;22;45425;-71
2023/04/06 07:51:04;;;;;;;;;26.75;25.50;;;;;11.03;57.08;101368.63;6249315;22;45518;-71
2023/04/06 07:53:30;;;;;;;;;29.75;29.50;;;;;11.11;59.04;101375.97;6275871;22;45233;-71
2023/04/06 07:55:56;;;;;;;;;34.50;28.00;;;;;11.12;58.85;101361.91;6277158;22;45955;-71
2023/04/06 07:58:21;;;;;;;;;32.50;28.75;;;;;10.77;58.49;101275.25;6275978;22;45272;-71
2023/04/06 08:00:47;;;;;;;;;32.75;30.50;;;;;11.28;56.49;101349.13;6249643;22;45220;-71
2023/04/06 08:03:12;;;;;;;;;27.75;23.75;;;;;11.46;56.28;101380.56;6275879;22;45164;-71
2023/04/06 08:05:38;;;;;;;;;27.75;26.50;;;;;11.50;56.31;101375.38;6276840;22;45226;-70
2023/04/06 08:08:03;;;;;;;;;33.75;30.00;;;;;11.36;58.70;101337.91;6249063;22;46053;-71
2023/04/06 08:10:29;;;;;;;;;33.75;29.50;;;;;11.29;58.50;101308.59;6277600;22;45315;-71
2023/04/06 08:12:54;;;;;;;;;30.75;25.50;;;;;11.60;57.19;101350.97;6276158;22;45393;-72
2023/04/06 08:15:19;;;;;;;;;33.75;30.50;;;;;11.82;55.93;101371.03;6276711;22;46020;-72
2023/04/06 08:17:45;;;;;;;;;33.75;27.25;;;;;11.89;57.32;101361.53;6276825;22;45252;-71
2023/04/06 08:20:10;;;;;;;;;37.75;31.00;;;;;12.10;57.28;101379.78;6276649;22;45303;-70
2023/04/06 08:22:36;;;;;;;;;32.75;29.25;;;;;12.22;57.23;101380.13;6248728;22;45511;-72
2023/04/06 08:25:01;;;;;;;;;29.25;25.50;;;;;12.26;55.95;101376.69;6276522;22;45106;-72
2023/04/06 08:27:27;;;;;;;;;29.25;28.00;;;;;12.31;54.87;101377.69;6276383;22;44638;-72
2023/04/06 08:29:52;;;;;;;;;29.25;26.50;;;;;12.13;56.35;101342.78;6277132;22;45160;-72
2023/04/06 08:32:17;;;;;;;;;31.75;25.00;;;;;12.36;55.69;101374.28;6276727;22;45413;-72
2023/04/06 08:34:43;;;;;;;;;33.00;29.00;;;;;12.36;55.78;101380.47;6276738;22;46295;-71
2023/04/06 08:37:08;;;;;;;;;31.00;31.00;;;;;12.33;55.48;101364.50;6276494;22;45165;-72
2023/04/06 08:39:33;;;;;;;;;33.50;30.75;;;;;12.42;55.39;101378.00;6277027;22;45272;-72
2023/04/06 08:42:02;;;;;;;;;38.00;32.50;;;;;12.27;56.56;101364.34;6276295;22;45193;-72
2023/04/06 08:44:29;;;;;;;;;33.75;31.50;;;;;12.36;54.75;101384.91;6271477;22;45331;-72
2023/04/06 08:46:54;;;;;;;;;32.25;28.25;;;;;12.17;56.30;101362.28;6246726;22;45452;-72
2023/04/06 08:49:21;;;;;;;;;36.25;30.75;;;;;12.29;55.66;101405.03;6276467;22;45289;-71
2023/04/06 08:51:47;;;;;;;;;27.25;25.25;;;;;12.16;56.67;101393.22;6276273;22;45113;-71
2023/04/06 08:54:12;;;;;;;;;29.50;29.00;;;;;12.21;55.71;101414.50;6276451;22;46037;-71
2023/04/06 08:56:39;;;;;;;;;30.50;28.75;;;;;12.12;55.17;101395.72;6248686;22;45218;-72
2023/04/06 08:59:06;;;;;;;;;27.00;24.50;;;;;11.87;56.48;101357.94;6275482;22;45428;-73
2023/04/06 09:01:36;;;;;;;;;28.00;26.75;;;;;11.90;55.63;101373.91;6276195;22;45315;-73
2023/04/06 09:04:08;;;;;;;;;29.00;28.50;;;;;11.38;57.17;101299.16;6276198;22;45171;-72
2023/04/06 09:06:33;;;;;;;;;34.50;32.25;;;;;11.84;56.85;101387.84;6275251;22;45358;-73
2023/04/06 09:08:59;;;;;;;;;33.25;30.50;;;;;11.89;56.19;101408.31;6276570;22;45300;-73
2023/04/06 09:11:24;;;;;;;;;31.75;28.00;;;;;11.80;56.32;101398.34;6275976;22;45225;-73
2023/04/06 09:13:53;;;;;;;;;33.50;26.75;;;;;11.81;59.58;101411.59;6275453;22;45176;-72
2023/04/06 09:16:19;;;;;;;;;31.75;25.00;;;;;11.74;58.13;101406.09;6274376;22;45236;-72
2023/04/06 09:18:45;;;;;;;;;26.25;26.25;;;;;11.50;59.59;101385.97;6275951;22;45246;-72
2023/04/06 09:21:11;;;;;;;;;36.00;31.00;;;;;11.56;60.14;101380.84;6276142;22;45318;-72
2023/04/06 09:23:38;;;;;;;;;33.75;28.25;;;;;11.71;60.67;101412.22;6275600;22;45269;-72
2023/04/06 09:26:09;;;;;;;;;30.25;28.50;;;;;11.60;58.28;101381.88;6276510;22;45315;-71
2023/04/06 09:29:01;;;;;;;;;29.25;26.75;;;;;11.77;59.20;101409.75;6275365;22;45220;-72
2023/04/06 09:31:32;;;;;;;;;24.50;23.00;;;;;11.79;59.97;101412.41;6269481;22;45205;-72
2023/04/06 09:33:58;;;;;;;;;23.75;20.25;;;;;11.80;60.35;101409.81;6275813;22;45261;-72
2023/04/06 09:36:34;;;;;;;;;19.50;19.50;;;;;11.60;59.44;101372.16;6276266;22;45429;-72
2023/04/06 09:39:04;;;;;;;;;18.25;15.25;;;;;11.77;59.54;101393.84;6247905;22;45274;-72
2023/04/06 09:41:36;;;;;;;;;24.00;22.75;;;;;11.83;59.52;101399.31;6275709;22;45321;-72
2023/04/06 09:44:06;;;;;;;;;16.50;15.75;;;;;11.80;61.34;101411.56;6273310;22;45322;-72
2023/04/06 09:46:36;;;;;;;;;21.50;20.50;;;;;11.61;59.81;101386.31;6248098;22;45320;-72
2023/04/06 09:49:02;;;;;;;;;25.75;21.00;;;;;11.67;60.22;101401.47;6275418;22;45117;-72
2023/04/06 09:51:31;;;;;;;;;21.00;19.50;;;;;11.72;60.35;101429.00;6275818;22;45255;-73
2023/04/06 09:54:01;;;;;;;;;20.75;19.00;;;;;11.71;59.34;101424.56;6275070;22;45327;-72
2023/04/06 09:56:30;;;;;;;;;23.00;18.25;;;;;11.64;62.50;101424.34;6276122;22;45249;-73
2023/04/06 09:59:01;;;;;;;;;22.00;18.00;;;;;11.59;62.65;101422.41;6274775;22;45317;-72
2023/04/06 10:01:29;;;;;;;;;20.25;16.75;;;;;11.57;61.57;101426.78;6275626;22;45228;-71
2023/04/06 10:04:07;;;;;;;;;21.25;17.25;;;;;11.31;61.24;101391.56;6275409;22;45293;-72
2023/04/06 10:06:35;;;;;;;;;21.75;18.75;;;;;11.47;63.40;101420.31;6275629;22;45265;-73
2023/04/06 10:09:04;;;;;;;;;18.50;15.00;;;;;11.51;61.36;101426.59;6275508;22;45265;-71
2023/04/06 10:11:30;;;;;;;;;16.25;11.50;;;;;11.55;61.19;101410.84;6275727;22;45145;-72
2023/04/06 10:13:56;;;;;;;;;16.75;16.00;;;;;11.50;61.68;101377.13;6275035;22;46666;-71
2023/04/06 10:16:22;;;;;;;;;19.00;15.25;;;;;11.27;63.37;101326.16;6275804;22;45252;-72
2023/04/06 10:18:56;;;;;;;;;14.50;14.50;;;;;11.68;61.53;101397.97;6247766;22;45668;-71
2023/04/06 10:21:27;;;;;;;;;15.75;14.00;;;;;11.72;62.61;101390.16;6275487;22;45311;-71
2023/04/06 10:24:00;;;;;;;;;15.00;13.00;;;;;11.78;63.12;101397.38;6275370;22;45417;-72
2023/04/06 10:26:26;;;;;;;;;15.25;14.25;;;;;12.00;61.50;101405.13;6276046;22;45216;-72
2023/04/06 10:28:52;;;;;;;;;14.75;14.50;;;;;12.11;61.55;101407.19;6276977;22;45232;-72
2023/04/06 10:31:28;;;;;;;;;15.00;13.75;;;;;12.18;60.73;101414.44;6277524;22;45251;-72
2023/04/06 10:33:58;;;;;;;;;17.50;14.00;;;;;12.27;61.36;101415.59;6277808;22;45239;-72
2023/04/06 10:36:29;;;;;;;;;16.50;13.75;;;;;12.22;61.23;101398.66;6278477;22;45509;-72
2023/04/06 10:38:57;;;;;;;;;15.75;15.50;;;;;12.34;62.33;101413.13;6277982;22;45204;-72
2023/04/06 10:41:23;;;;;;;;;15.50;12.25;;;;;12.32;61.45;101394.50;6249078;22;45506;-71
2023/04/06 10:43:56;;;;;;;;;20.25;16.00;;;;;12.36;60.86;101406.09;6249716;22;46507;-71
2023/04/06 10:46:29;;;;;;;;;13.75;13.75;;;;;12.46;61.46;101401.09;6278097;22;45335;-71
2023/04/06 10:48:56;;;;;;;;;10.25;10.00;;;;;12.64;60.55;101410.38;6277777;22;45274;-71
2023/04/06 10:51:27;;;;;;;;;16.50;16.50;;;;;12.71;60.99;101422.91;6277561;22;45292;-71
2023/04/06 10:53:53;;;;;;;;;9.25;9.25;;;;;12.69;62.13;101411.41;6249099;22;46719;-70
2023/04/06 10:56:22;;;;;;;;;13.75;11.25;;;;;12.74;60.45;101418.59;6278526;22;45402;-71
2023/04/06 10:58:49;;;;;;;;;10.25;10.25;;;;;12.77;59.73;101421.34;6276684;22;45331;-72
2023/04/06 11:01:17;;;;;;;;;13.75;13.75;;;;;12.75;59.97;101416.84;6277958;22;45319;-71
2023/04/06 11:03:51;;;;;;;;;14.75;14.75;;;;;12.71;60.25;101407.88;6249136;22;45414;-71
2023/04/06 11:06:25;;;;;;;;;12.50;12.50;;;;;12.74;59.67;101415.97;6277900;22;45169;-72
2023/04/06 11:08:51;;;;;;;;;12.25;10.50;;;;;12.84;59.55;101408.22;6250260;22;45355;-71
2023/04/06 11:11:19;;;;;;;;;13.50;10.50;;;;;13.04;59.64;101412.25;6277660;22;45384;-71
2023/04/06 11:13:50;;;;;;;;;22.25;17.25;;;;;12.70;59.59;101321.22;6276838;22;45216;-71
2023/04/06 11:16:17;;;;;;;;;16.50;16.25;;;;;12.94;58.68;101320.91;6249314;22;45297;-71
2023/04/06 11:18:51;;;;;;;;;12.75;12.75;;;;;13.66;58.38;101401.28;6277467;22;45190;-72
2023/04/06 11:21:18;;;;;;;;;12.75;10.00;;;;;13.86;58.13;101368.06;6249192;22;46878;-72
2023/04/06 11:23:43;;;;;;;;;9.75;9.75;;;;;14.27;57.68;101365.28;6277015;22;45304;-72
2023/04/06 11:26:12;;;;;;;;;9.00;8.75;;;;;14.68;56.58;101365.16;6277194;22;45264;-72
2023/04/06 11:28:39;;;;;;;;;10.75;8.00;;;;;15.06;55.17;101375.50;6276448;22;45340;-72
2023/04/06 11:31:05;;;;;;;;;10.33;6.33;;;;;15.26;54.84;101335.84;6276538;22;45264;-72
2023/04/06 11:33:35;;;;;;;;;7.00;7.00;;;;;15.53;53.12;101331.78;6276853;22;45242;-72
2023/04/06 11:36:01;;;;;;;;;7.67;7.67;;;;;16.13;52.38;101364.47;6276791;22;45432;-71
2023/04/06 11:38:26;;;;;;;;;10.33;7.67;;;;;16.40;53.38;101364.75;6276946;22;44984;-72
2023/04/06 11:40:54;;;;;;;;;7.67;7.67;;;;;16.49;52.59;101350.59;6277186;22;45271;-72
2023/04/06 11:43:27;;;;;;;;;6.00;6.00;;;;;16.52;50.83;101330.19;6276106;22;45248;-71
2023/04/06 11:46:03;;;;;;;;;10.00;10.00;;;;;16.74;52.36;101355.25;6275904;22;45371;-72
2023/04/06 11:48:29;;;;;;;;;7.67;7.67;;;;;16.70;51.88;101356.13;6274333;22;45533;-71
2023/04/06 11:51:00;;;;;;;;;6.67;4.67;;;;;16.59;51.20;101362.25;6272703;22;45469;-71
2023/04/06 11:53:29;;;;;;;;;7.67;6.67;;;;;16.28;51.50;101320.19;6275268;22;45287;-71
2023/04/06 11:55:54;;;;;;;;;7.00;6.00;;;;;16.31;50.68;101324.66;6248272;22;45435;-71
2023/04/06 11:58:20;;;;;;;;;4.67;4.67;;;;;16.34;49.47;101336.25;6276049;22;45741;-72
2023/04/06 12:00:46;;;;;;;;;6.67;5.33;;;;;16.45;50.51;101347.03;6276899;22;45240;-71
2023/04/06 12:03:12;;;;;;;;;5.33;5.33;;;;;16.46;50.63;101348.78;6276045;22;45292;-72
2023/04/06 12:05:38;;;;;;;;;9.00;6.00;;;;;16.51;50.68;101307.03;6276082;22;45212;-72
2023/04/06 12:08:03;;;;;;;;;9.33;5.00;;;;;16.70;50.25;101315.19;6276966;22;45148;-71
2023/04/06 12:10:29;;;;;;;;;5.33;5.00;;;;;16.74;49.47;101333.00;6276754;22;44721;-72
2023/04/06 12:12:55;;;;;;;;;5.00;3.67;;;;;16.58;49.24;101325.75;6275654;22;46068;-72
2023/04/06 12:15:20;;;;;;;;;6.00;6.00;;;;;16.54;48.69;101332.84;6276538;22;45068;-71
2023/04/06 12:17:45;;;;;;;;;7.00;6.00;;;;;16.43;48.64;101338.09;6275956;22;45228;-72
2023/04/06 12:20:11;;;;;;;;;7.00;7.00;;;;;16.18;48.92;101309.41;6276919;22;45465;-71
2023/04/06 12:22:36;;;;;;;;;9.00;6.00;;;;;15.95;49.17;101293.19;6276623;22;45454;-71
2023/04/06 12:25:02;;;;;;;;;8.00;5.00;;;;;16.03;49.63;101332.38;6276651;22;45550;-71
2023/04/06 12:27:27;;;;;;;;;5.33;5.00;;;;;15.61;49.37;101282.13;6276636;22;45261;-71
2023/04/06 12:29:53;;;;;;;;;6.00;6.00;;;;;15.59;49.75;101297.19;6276785;22;45379;-71
2023/04/06 12:32:19;;;;;;;;;5.33;5.33;;;;;15.77;49.90;101329.44;6276413;22;46117;-72
2023/04/06 12:34:44;;;;;;;;;6.33;4.67;;;;;15.82;49.73;101338.38;6277045;22;45236;-72
2023/04/06 12:37:10;;;;;;;;;4.00;4.00;;;;;15.56;49.90;101300.72;6275865;22;45435;-72
2023/04/06 12:39:35;;;;;;;;;3.00;3.00;;;;;15.69;49.52;101349.78;6274570;22;45296;-72
2023/04/06 12:42:02;;;;;;;;;4.00;4.00;;;;;15.45;50.32;101305.03;6275786;22;45835;-72
2023/04/06 12:44:27;;;;;;;;;5.00;3.00;;;;;15.58;49.63;101330.06;6276526;22;45226;-72
2023/04/06 12:46:53;;;;;;;;;4.00;2.00;;;;;15.19;49.91;101270.06;6276198;22;45210;-70
2023/04/06 12:49:19;;;;;;;;;5.00;2.00;;;;;15.39;49.81;101312.94;6276031;22;45171;-71
2023/04/06 12:51:45;;;;;;;;;4.00;2.00;;;;;15.51;49.98;101333.50;6274697;22;45301;-70
2023/04/06 12:54:11;;;;;;;;;5.00;3.67;;;;;15.38;49.93;101311.16;6276644;22;45152;-70
2023/04/06 12:56:37;;;;;;;;;3.67;2.67;;;;;15.54;50.25;101325.56;6247283;22;45338;-73
2023/04/06 12:59:02;;;;;;;;;6.00;3.00;;;;;15.61;50.11;101332.75;6275365;22;45411;-71
2023/04/06 13:01:28;;;;;;;;;4.00;4.00;;;;;15.52;49.72;101306.91;6275959;22;46389;-70
2023/04/06 13:03:53;;;;;;;;;7.00;4.00;;;;;15.73;49.87;101316.06;6275607;22;45257;-70
2023/04/06 13:06:19;;;;;;;;;3.33;3.33;;;;;15.75;49.22;101304.53;6276400;22;45755;-71
2023/04/06 13:08:47;;;;;;;;;6.67;2.67;;;;;15.82;48.34;101300.16;6275450;22;45421;-71
2023/04/06 13:11:12;;;;;;;;;4.00;3.00;;;;;15.99;49.03;101313.66;6276543;22;46159;-71
2023/04/06 13:13:37;;;;;;;;;2.00;2.00;;;;;15.92;48.38;101309.16;6275361;22;45495;-72
2023/04/06 13:16:05;;;;;;;;;2.67;2.00;;;;;16.01;47.89;101330.56;6276689;22;45082;-72
2023/04/06 13:18:32;;;;;;;;;3.67;2.67;;;;;15.98;48.63;101317.22;6275859;22;45210;-72
2023/04/06 13:20:57;;;;;;;;;3.33;2.67;;;;;16.01;48.13;101322.56;6276381;22;45453;-71
2023/04/06 13:23:23;;;;;;;;;3.00;3.00;;;;;16.09;48.05;101327.09;6275935;22;45228;-70
2023/04/06 13:25:57;;;;;;;;;4.67;2.00;;;;;16.29;48.17;101329.97;6276538;22;45301;-72
2023/04/06 13:28:22;;;;;;;;;5.00;3.00;;;;;16.50;47.32;101323.06;6275611;22;44677;-72
2023/04/06 13:30:48;;;;;;;;;4.00;2.33;;;;;16.44;47.42;101305.22;6275530;22;45926;-70
2023/04/06 13:33:14;;;;;;;;;1.33;1.33;;;;;16.62;46.73;101314.25;6275133;22;45295;-70
2023/04/06 13:35:39;;;;;;;;;1.67;1.67;;;;;16.54;46.85;101306.16;6275295;22;45212;-71
2023/04/06 13:38:05;;;;;;;;;3.00;3.00;;;;;16.76;46.35;101332.19;6275918;22;45328;-71
2023/04/06 13:40:31;;;;;;;;;3.00;2.00;;;;;16.53;46.56;101293.72;6275956;22;45257;-71
2023/04/06 13:42:56;;;;;;;;;2.33;2.33;;;;;16.80;46.40;101326.84;6274079;22;45283;-71
2023/04/06 13:45:21;;;;;;;;;3.00;2.00;;;;;16.81;45.97;101316.22;6275922;22;45640;-71
2023/04/06 13:47:47;;;;;;;;;3.67;3.00;;;;;16.73;45.77;101292.09;6275639;22;45219;-71
2023/04/06 13:50:12;;;;;;;;;3.33;2.00;;;;;16.91;46.04;101317.16;6275766;22;45318;-71
2023/04/06 13:52:37;;;;;;;;;3.67;2.00;;;;;16.61;45.35;101267.97;6275465;22;45261;-71
2023/04/06 13:55:03;;;;;;;;;3.67;2.00;;;;;16.94;46.11;101306.47;6276116;22;45308;-72
2023/04/06 13:57:29;;;;;;;;;2.00;1.00;;;;;16.76;45.30;101307.22;6274879;22;45249;-71
2023/04/06 13:59:55;;;;;;;;;1.67;1.33;;;;;16.70;44.23;101297.41;6276035;22;46066;-71
2023/04/06 14:02:22;;;;;;;;;0.67;0.67;;;;;16.88;42.99;101326.03;6248707;22;45935;-72
2023/04/06 14:04:47;;;;;;;;;0.00;0.00;;;;;16.86;43.13;101306.44;6277506;22;45251;-72
2023/04/06 14:07:13;;;;;;;;;0.00;0.00;;;;;16.97;43.01;101299.41;6276702;22;45242;-71
2023/04/06 14:09:38;;;;;;;;;0.67;0.67;;;;;16.97;40.74;101286.06;6248845;22;46936;-72
2023/04/06 14:12:03;;;;;;;;;1.00;1.00;;;;;17.15;41.12;101309.28;6276765;22;45303;-72
2023/04/06 14:14:29;;;;;;;;;2.33;1.00;;;;;17.37;41.32;101304.06;6277611;22;45250;-72
2023/04/06 14:16:54;;;;;;;;;4.00;1.67;;;;;17.34;41.17;101262.19;6275136;22;45457;-72
2023/04/06 14:19:21;;;;;;;;;2.00;1.00;;;;;17.36;40.85;101268.41;6277031;22;45305;-72
2023/04/06 14:21:48;;;;;;;;;3.33;1.33;;;;;17.51;41.36;101296.09;6277087;22;45248;-72
2023/04/06 14:24:14;;;;;;;;;2.00;1.00;;;;;17.51;40.59;101290.75;6277028;22;45289;-72
2023/04/06 14:26:41;;;;;;;;;0.00;0.00;;;;;17.44;41.01;101285.34;6276486;22;45596;-72
2023/04/06 14:29:07;;;;;;;;;1.00;1.00;;;;;17.54;40.84;101285.41;6277191;22;45179;-72
2023/04/06 14:31:32;;;;;;;;;4.00;2.00;;;;;17.57;40.77;101285.44;6277161;22;45342;-71
2023/04/06 14:34:01;;;;;;;;;1.00;1.00;;;;;17.61;40.35;101298.78;6277656;22;45320;-71
2023/04/06 14:36:35;;;;;;;;;5.00;0.67;;;;;17.42;40.26;101267.53;6277023;22;45334;-71
2023/04/06 14:39:02;;;;;;;;;1.00;1.00;;;;;17.61;40.11;101289.88;6276982;22;46392;-71
2023/04/06 14:41:27;;;;;;;;;1.00;1.00;;;;;17.36;41.36;101248.81;6276995;22;45299;-71
2023/04/06 14:43:52;;;;;;;;;2.00;2.00;;;;;17.29;40.64;101244.34;6276952;22;45185;-71
2023/04/06 14:46:18;;;;;;;;;1.00;1.00;;;;;17.47;40.53;101287.16;6249727;22;45303;-71
2023/04/06 14:48:45;;;;;;;;;0.00;0.00;;;;;17.09;41.07;101233.59;6276927;22;46037;-71
2023/04/06 14:51:11;;;;;;;;;1.67;1.67;;;;;17.36;41.32;101300.47;6249751;22;45323;-71
2023/04/06 14:53:36;;;;;;;;;1.33;1.33;;;;;17.20;41.13;101283.50;6276982;22;45206;-70
2023/04/06 14:56:02;;;;;;;;;1.00;1.00;;;;;17.34;40.98;101278.22;6249489;22;46637;-70
2023/04/06 14:58:27;;;;;;;;;1.33;1.00;;;;;17.64;40.83;101288.13;6276091;22;46341;-71
2023/04/06 15:01:00;;;;;;;;;2.33;0.00;;;;;17.69;40.63;101266.72;6277468;22;45276;-70
2023/04/06 15:03:26;;;;;;;;;2.67;1.00;;;;;18.04;39.86;101295.38;6276033;22;45243;-70
2023/04/06 15:05:56;;;;;;;;;0.33;0.33;;;;;18.02;40.21;101278.44;6277179;22;45166;-70
2023/04/06 15:08:24;;;;;;;;;1.67;0.67;;;;;18.18;39.94;101301.66;6276230;22;45471;-70
2023/04/06 15:10:51;;;;;;;;;3.00;1.67;;;;;18.18;40.52;101293.63;6249029;22;45209;-70
2023/04/06 15:13:17;;;;;;;;;1.67;1.00;;;;;18.05;39.63;101273.97;6275951;22;45419;-70
2023/04/06 15:15:43;;;;;;;;;0.67;0.67;;;;;18.19;40.08;101284.69;6277179;22;45321;-70
2023/04/06 15:18:10;;;;;;;;;1.00;1.00;;;;;18.01;39.67;101271.28;6276388;22;46269;-70
2023/04/06 15:20:36;;;;;;;;;4.67;1.33;;;;;17.89;40.11;101251.66;6276815;22;45316;-70
2023/04/06 15:23:02;;;;;;;;;0.00;0.00;;;;;17.85;38.72;101260.56;6276547;22;45581;-70
2023/04/06 15:25:28;;;;;;;;;2.00;2.00;;;;;17.93;38.25;101278.44;6275838;22;45248;-70
2023/04/06 15:27:54;;;;;;;;;1.67;1.67;;;;;17.72;38.80;101242.69;6275841;22;46635;-70
2023/04/06 15:30:19;;;;;;;;;1.33;1.00;;;;;17.67;39.90;101242.69;6277066;22;45175;-70
2023/04/06 15:33:03;;;;;;;;;4.33;1.33;;;;;17.52;39.76;101223.03;6276385;22;45212;-70
2023/04/06 15:35:29;;;;;;;;;1.67;1.67;;;;;17.87;40.12;101277.53;6223492;22;45329;-70
2023/04/06 15:37:56;;;;;;;;;1.00;1.00;;;;;17.85;40.49;101284.63;6276527;22;45113;-70
2023/04/06 15:40:22;;;;;;;;;2.00;1.00;;;;;17.81;40.53;101282.88;6277234;22;45216;-70
2023/04/06 15:42:48;;;;;;;;;0.33;0.33;;;;;17.71;40.61;101254.28;6276245;22;45293;-70
2023/04/06 15:45:14;;;;;;;;;1.00;1.00;;;;;18.02;40.53;101279.31;6276565;22;45394;-70
2023/04/06 15:47:40;;;;;;;;;1.67;1.67;;;;;18.06;40.29;101250.78;6275402;22;45260;-70
2023/04/06 15:50:07;;;;;;;;;4.33;1.00;;;;;18.31;39.99;101268.63;6276922;22;45233;-70
2023/04/06 15:52:33;;;;;;;;;2.67;1.00;;;;;18.33;40.21;101271.31;6276383;22;44641;-70
2023/04/06 15:54:58;;;;;;;;;1.00;1.00;;;;;18.24;40.43;101249.91;6276031;22;46936;-70
2023/04/06 15:57:24;;;;;;;;;1.33;1.00;;;;;18.22;39.94;101236.53;6275712;22;46002;-71
2023/04/06 15:59:49;;;;;;;;;1.67;1.00;;;;;18.35;39.99;101250.81;6276596;22;45245;-70
2023/04/06 16:02:15;;;;;;;;;1.00;1.00;;;;;18.24;40.18;101232.06;6276749;22;45270;-70
2023/04/06 16:04:40;;;;;;;;;3.33;1.00;;;;;18.51;39.37;101247.22;6277103;22;45280;-70
2023/04/06 16:07:06;;;;;;;;;1.00;1.00;;;;;18.62;39.98;101260.56;6276535;22;45213;-69
2023/04/06 16:09:31;;;;;;;;;0.67;0.67;;;;;18.42;40.30;101240.97;6277151;22;45168;-69
2023/04/06 16:11:56;;;;;;;;;0.33;0.33;;;;;18.45;40.12;101265.94;6275083;22;45455;-69
2023/04/06 16:14:22;;;;;;;;;1.33;1.33;;;;;18.19;40.08;101263.28;6248802;22;45980;-69
2023/04/06 16:16:49;;;;;;;;;2.00;1.00;;;;;18.11;40.29;101255.25;6274989;22;46616;-70
2023/04/06 16:19:14;;;;;;;;;1.67;1.67;;;;;17.88;40.08;101257.00;6271665;22;45315;-69
2023/04/06 16:21:39;;;;;;;;;3.00;3.00;;;;;17.91;40.61;101275.75;6246362;22;45680;-69
2023/04/06 16:24:05;;;;;;;;;1.33;1.00;;;;;17.84;40.49;101272.16;6274506;22;45635;-69
2023/04/06 16:26:31;;;;;;;;;2.00;1.00;;;;;17.74;40.61;101266.75;6276426;22;45227;-69
2023/04/06 16:28:57;;;;;;;;;3.00;2.00;;;;;17.68;40.80;101262.28;6275519;22;45641;-69
2023/04/06 16:31:24;;;;;;;;;1.67;1.00;;;;;17.65;41.23;101257.81;6276724;22;45472;-69
2023/04/06 16:33:51;;;;;;;;;2.00;2.00;;;;;17.48;41.11;101235.50;6276596;22;45244;-69
2023/04/06 16:36:28;;;;;;;;;1.33;1.33;;;;;17.19;41.26;101190.84;6276560;22;45389;-69
2023/04/06 16:38:58;;;;;;;;;2.00;1.00;;;;;17.14;41.22;101195.31;6275833;22;45303;-69
2023/04/06 16:41:26;;;;;;;;;3.00;1.00;;;;;17.49;40.10;101249.75;6276484;22;45227;-69
2023/04/06 16:43:52;;;;;;;;;2.33;1.00;;;;;17.52;40.73;101260.44;6273840;22;45534;-70
2023/04/06 16:46:17;;;;;;;;;1.00;1.00;;;;;17.22;40.57;101219.38;6275920;22;46133;-70
2023/04/06 16:48:43;;;;;;;;;0.67;0.67;;;;;17.49;39.65;101266.69;6275849;22;45225;-71
2023/04/06 16:51:08;;;;;;;;;1.00;1.00;;;;;17.32;39.63;101249.69;6276889;22;45223;-70
2023/04/06 16:53:36;;;;;;;;;2.00;0.33;;;;;17.33;39.85;101257.69;6276268;22;45233;-71
2023/04/06 16:56:05;;;;;;;;;0.00;0.00;;;;;17.29;39.41;101269.28;6276207;22;46284;-70
2023/04/06 16:58:32;;;;;;;;;1.00;1.00;;;;;17.19;39.75;101267.44;6275147;22;45430;-71
2023/04/06 17:01:00;;;;;;;;;2.00;2.00;;;;;17.15;39.80;101269.22;6277195;22;45320;-70
2023/04/06 17:03:29;;;;;;;;;1.33;0.00;;;;;17.15;39.52;101268.31;6275585;22;45300;-70
2023/04/06 17:05:54;;;;;;;;;1.67;1.67;;;;;16.99;39.58;101241.53;6276277;22;49401;-70
2023/04/06 17:08:20;;;;;;;;;3.00;2.00;;;;;17.04;39.85;101260.25;6276053;22;44645;-70
2023/04/06 17:10:45;;;;;;;;;1.67;1.00;;;;;17.11;40.01;101275.44;6276294;22;45054;-71
2023/04/06 17:13:10;;;;;;;;;1.33;1.00;;;;;17.08;39.92;101277.19;6275622;22;45514;-71
2023/04/06 17:15:36;;;;;;;;;0.67;0.67;;;;;16.76;40.55;101216.47;6276377;22;45154;-71
2023/04/06 17:18:02;;;;;;;;;1.00;1.00;;;;;17.00;40.28;101272.72;6276357;22;45145;-72
2023/04/06 17:20:27;;;;;;;;;2.67;1.00;;;;;16.96;40.82;101276.22;6276142;22;45381;-72
2023/04/06 17:22:53;;;;;;;;;0.00;0.00;;;;;16.87;40.83;101265.50;6275923;22;45273;-71
2023/04/06 17:25:18;;;;;;;;;3.33;2.00;;;;;16.78;41.12;101260.13;6276327;22;45657;-70
2023/04/06 17:27:44;;;;;;;;;0.00;0.00;;;;;16.75;41.22;101289.44;6275989;22;45288;-71
2023/04/06 17:30:10;;;;;;;;;2.50;1.00;;;;;16.56;41.14;101262.59;6248152;22;45224;-71
2023/04/06 17:32:36;;;;;;;;;3.00;1.33;;;;;16.36;41.58;101248.22;6275457;22;44991;-71
2023/04/06 17:35:02;;;;;;;;;7.00;4.33;;;;;16.36;41.64;101266.91;6276327;22;45687;-70
2023/04/06 17:37:27;;;;;;;;;2.00;1.00;;;;;16.30;42.03;101270.41;6277255;22;45354;-70
2023/04/06 17:39:53;;;;;;;;;3.00;3.00;;;;;16.23;41.71;101271.22;6250608;22;45229;-71
2023/04/06 17:42:19;;;;;;;;;1.00;1.00;;;;;16.20;41.98;101289.88;6275862;22;45155;-70
2023/04/06 17:44:47;;;;;;;;;5.00;2.00;;;;;16.10;42.04;101296.91;6277329;22;45739;-69
2023/04/06 17:47:13;;;;;;;;;1.67;1.00;;;;;15.99;42.24;101298.59;6275636;22;45302;-71
2023/04/06 17:49:39;;;;;;;;;2.67;2.00;;;;;15.81;42.08;101282.38;6249891;22;45257;-71
2023/04/06 17:52:04;;;;;;;;;6.33;2.00;;;;;15.66;42.53;101267.09;6249585;22;45311;-71
2023/04/06 17:54:29;;;;;;;;;0.00;0.00;;;;;15.67;42.44;101280.41;6277626;22;46583;-71
2023/04/06 17:56:56;;;;;;;;;1.00;1.00;;;;;15.67;42.50;101300.84;6276645;22;52591;-71
2023/04/06 17:59:21;;;;;;;;;2.67;1.00;;;;;15.47;42.60;101279.31;6277025;22;45178;-71
2023/04/06 18:01:47;;;;;;;;;1.00;1.00;;;;;15.52;43.05;101306.00;6277380;22;45265;-71
2023/04/06 18:04:12;;;;;;;;;2.00;2.00;;;;;15.11;42.88;101250.44;6277392;22;45305;-71
2023/04/06 18:06:37;;;;;;;;;1.00;1.00;;;;;15.21;43.24;101295.84;6277490;22;45173;-72
2023/04/06 18:09:03;;;;;;;;;1.00;1.00;;;;;15.24;43.25;101310.09;6277938;22;45498;-72
2023/04/06 18:11:29;;;;;;;;;2.00;1.00;;;;;15.15;43.45;101313.50;6277254;22;45153;-72
2023/04/06 18:13:55;;;;;;;;;2.33;0.00;;;;;15.06;44.11;101318.72;6277501;22;45255;-72